• Join FlightAware (Why Join?)
  • Login
  • US Flag 
06:14PM EDT


 

Airport Tracker/Info


-or-


 

Live Flight TrackerFlight Track Log ✈ SKW5631 ✈ 01-May-2014 ✈ KSFO - KBUR

Flight Track Log - Related Links

Times and Time Zones

All times are in EDT time to prevent confusion due to time zone crossing. See the SKW5631 flight status page for this flight to view local times or setup timezone preferences in your user account.

Time Position Orientation Groundspeed Altitude Reporting Facility
EDT Latitude Longitude Course Direction KTS MPH feet Rate Location/Type
09:26PM 37.6433 -122.3661 356° North 167 192 1,000  Level Oakland Center
09:27PM 37.6994 -122.3711 356° North 244 281 2,900 2,400 Climbing Oakland Center
09:28PM 37.6806 -122.4422 251° West 268 308 6,000 2,820 Climbing Oakland Center
09:29PM 37.6061 -122.4603 191° South 277 319 8,800 2,340 Climbing Oakland Center
09:30PM 37.5244 -122.4842 193° South 295 339 10,900 2,340 Climbing Oakland Center
09:31PM 37.4333 -122.4792 178° South 331 381 13,700 2,640 Climbing Oakland Center
09:32PM 37.3611 -122.3989 139° Southeast 346 398 16,300 2,040 Climbing Oakland Center
09:33PM 37.2867 -122.3161 138° Southeast 355 409 17,900 1,680 Climbing Oakland Center
09:34PM 37.2069 -122.2233 137° Southeast 388 447 19,800 1,980 Climbing Oakland Center
09:35PM 37.1058 -122.1089 138° Southeast 407 468 22,000 1,920 Climbing Oakland Center
09:36PM 37.0194 -122.0097 137° Southeast 422 486 23,800 1,620 Climbing Oakland Center
09:37PM 36.9308 -121.9078 137° Southeast 430 495 25,400 1,500 Climbing Oakland Center
09:38PM 36.8414 -121.8053 137° Southeast 433 498 26,900 1,260 Climbing Oakland Center
09:39PM 36.7511 -121.7044 138° Southeast 449 517 28,000 1,020 Climbing Oakland Center
09:40PM 36.6569 -121.5992 138° Southeast 453 521 29,100 1,020 Climbing Oakland Center
09:41PM 36.5608 -121.4903 138° Southeast 465 535 30,100 1,020 Climbing Oakland Center
09:42PM 36.4442 -121.3583 138° Southeast 469 540 31,300 1,080 Climbing Oakland Center
09:43PM 36.3464 -121.2489 138° Southeast 474 545 32,400 780 Climbing Oakland Center
09:44PM 36.2494 -121.1375 137° Southeast 474 545 33,000 240 Climbing Oakland Center
09:45PM 36.1475 -121.0253 138° Southeast 490 564 33,000  Level Oakland Center
09:46PM 36.0461 -120.9114 138° Southeast 492 566 33,000 -60 Level Oakland Center
09:47PM 35.9442 -120.7969 138° Southeast 493 567 32,900  Descending Oakland Center
09:48PM 35.8442 -120.6867 138° Southeast 486 559 33,000  Climbing Oakland Center
09:49PM 35.7458 -120.5772 138° Southeast 479 551 33,000  Level Oakland Center
09:50PM 35.6303 -120.4506 138° Southeast 468 539 33,000  Level Oakland Center
09:51PM 35.5397 -120.3517 138° Southeast 469 540 33,000 -120 Level Los Angeles Center
09:52PM 35.4414 -120.2444 138° Southeast 471 542 32,800 -1,320 Descending Los Angeles Center
09:53PM 35.3311 -120.1217 138° Southeast 473 544 30,300 -2,280 Descending Los Angeles Center
09:55PM 35.1372 -119.9142 139° Southeast 464 534 25,900 -2,160 Descending Oakland Center
09:57PM 35.0497 -119.8086 135° Southeast 447 514 23,700 -1,740 Descending Los Angeles Center
09:58PM 34.9714 -119.6997 131° Southeast 431 496 22,300 -1,380 Descending Los Angeles Center
09:59PM 34.8869 -119.5867 132° Southeast 448 516 20,900 -1,560 Descending Los Angeles Center
10:00PM 34.8044 -119.4767 132° Southeast 445 512 19,200 -1,920 Descending Los Angeles Center
10:01PM 34.7069 -119.3442 132° Southeast 441 507 17,000 -2,340 Descending Los Angeles Center
10:02PM 34.6275 -119.2361 132° Southeast 434 499 14,400 -2,700 Descending Los Angeles Center
10:03PM 34.5636 -119.1225 124° Southeast 396 456 11,500 -1,680 Descending Los Angeles Center
10:04PM 34.5136 -119.0258 122° Southeast 324 373 11,000 -540 Descending Los Angeles Center
10:05PM 34.4494 -118.9667 143° Southeast 297 342 10,500 -1,260 Descending Los Angeles Center
10:06PM 34.3783 -118.9061 145° Southeast 311 358 8,400 -1,800 Descending Los Angeles Center
10:07PM 34.3167 -118.8386 138° Southeast 297 342 6,800 -1,620 Descending Los Angeles Center
10:08PM 34.2622 -118.7736 135° Southeast 274 315 5,200 -1,620 Descending Los Angeles Center
10:09PM 34.2250 -118.6753 115° Southeast 270 311 3,600 -1,020 Descending Los Angeles Center
10:10PM 34.2006 -118.5925 110° East 265 305 3,200 -360 Descending Los Angeles Center
10:11PM 34.1994 -118.5169 91° East 240 276 2,900 -420 Descending Los Angeles Center
10:12PM 34.2000 -118.4581 89° East 205 236 2,400 -780 Descending Los Angeles Center
10:13PM 34.1989 -118.4108 92° East 164 189 1,400 -720 Descending Los Angeles Center
10:14PM 34.1986 -118.3600 90° East 151 174 1,000 -420 Descending Los Angeles Center